Other Surface Observations
Issued by NWS Great Falls, MT

Home | Current Version | Previous Version | Text Only | Print | Product List | Glossary On
Versions: 1 2 3 4 5 6 7 8 9 10 11 12 13 14 15 16 17 18 19 20 21 22 23 24 25 26 27 28 29 30 31 32 33 34 35 36 37 38 39 40 41 42 43 44 45 46 47 48 49 50
000
SXUS55 KTFX 210544
OSOTFX
AREA AWOS OBSERVATIONS
NATIONAL WEATHER SERVICE GREAT FALLS MT
1144 PM MDT WED SEP 20 2017

METAR KPO1 210545Z AUTO 00000KT 10SM 11/03 A2963 RMK POPLAR
METAR KS71 210545Z AUTO 00000KT 10SM 09/01 A2960 RMK CHINOOK
METAR K38S 210545Z AUTO 00000KT 10SM 04/01 A2976 RMK DEER LODGE
METAR K3U3 210545Z AUTO 20004KT 10SM 04/M02 A2975 RMK ANACONDA
METAR K6S5 210545Z AUTO 00000KT 10SM 04/01 A2976 RMK HAMILTON
METAR KS59 210545Z AUTO 00000KT 10SM 04/02 A2969 RMK LIBBY
METAR K88M 210545Z AUTO 00000KT 7SM 07/02 A2969 RMK EUREKA



USA.gov is the U.S. government's official web portal to all federal, state and local government web resources and services.